Terminal Aerodrome Forecast
Issued by NWS

Home | Current Version | Previous Version | Graphics & Text | Print | Product List | Glossary On
Versions: 1 2 3 4 5 6 7 8 9 10 11 12 13 14 15 16
106
FTUS43 KMPX 232322
TAFRWF
TAF
KRWF 232322Z 2400/2424 17008KT P6SM BKN250
     FM240300 19012KT P6SM BKN250
     FM241400 28012G19KT P6SM VCSH OVC080
      TEMPO 2415/2418 P6SM -SHRA
     FM241800 31018G25KT P6SM SCT050=

USA.gov is the U.S. government's official web portal to all federal, state and local government web resources and services.